sensor_id;sensor_type;location;lat;lon;timestamp;P1;durP1;ratioP1;P2;durP2;ratioP2
7783;SDS011;19359;51.402;6.778;2023-03-20T00:00:15;21.50;;;12.40;;
7783;SDS011;19359;51.402;6.778;2023-03-20T00:02:44;21.45;;;11.45;;
7783;SDS011;19359;51.402;6.778;2023-03-20T00:05:15;19.20;;;11.48;;
7783;SDS011;19359;51.402;6.778;2023-03-20T00:07:44;16.75;;;10.00;;
7783;SDS011;19359;51.402;6.778;2023-03-20T00:10:11;8.52;;;7.43;;
7783;SDS011;19359;51.402;6.778;2023-03-20T00:12:38;11.80;;;7.25;;
7783;SDS011;19359;51.402;6.778;2023-03-20T00:15:06;9.43;;;6.72;;
7783;SDS011;19359;51.402;6.778;2023-03-20T00:17:44;9.57;;;6.22;;
7783;SDS011;19359;51.402;6.778;2023-03-20T00:20:12;7.80;;;5.88;;
7783;SDS011;19359;51.402;6.778;2023-03-20T00:22:41;6.45;;;5.70;;
7783;SDS011;19359;51.402;6.778;2023-03-20T00:25:08;8.40;;;5.93;;
7783;SDS011;19359;51.402;6.778;2023-03-20T00:27:38;8.48;;;6.18;;
7783;SDS011;19359;51.402;6.778;2023-03-20T00:30:08;9.73;;;4.60;;
7783;SDS011;19359;51.402;6.778;2023-03-20T00:32:44;9.45;;;5.60;;
7783;SDS011;19359;51.402;6.778;2023-03-20T00:35:15;10.52;;;5.72;;
7783;SDS011;19359;51.402;6.778;2023-03-20T00:37:46;8.95;;;6.75;;
7783;SDS011;19359;51.402;6.778;2023-03-20T00:40:13;10.15;;;6.10;;
7783;SDS011;19359;51.402;6.778;2023-03-20T00:42:41;7.20;;;6.43;;
7783;SDS011;19359;51.402;6.778;2023-03-20T00:45:10;9.23;;;6.28;;
7783;SDS011;19359;51.402;6.778;2023-03-20T00:47:40;10.23;;;5.97;;
7783;SDS011;19359;51.402;6.778;2023-03-20T00:50:12;8.00;;;6.15;;
7783;SDS011;19359;51.402;6.778;2023-03-20T00:52:41;9.85;;;5.55;;
7783;SDS011;19359;51.402;6.778;2023-03-20T00:55:10;9.27;;;5.70;;
7783;SDS011;19359;51.402;6.778;2023-03-20T00:57:37;9.70;;;6.20;;
7783;SDS011;19359;51.402;6.778;2023-03-20T01:00:12;10.27;;;6.63;;
7783;SDS011;19359;51.402;6.778;2023-03-20T01:02:46;7.75;;;5.80;;
7783;SDS011;19359;51.402;6.778;2023-03-20T01:05:13;9.30;;;5.35;;
7783;SDS011;19359;51.402;6.778;2023-03-20T01:07:40;6.60;;;5.47;;
7783;SDS011;19359;51.402;6.778;2023-03-20T01:10:10;8.45;;;5.88;;
7783;SDS011;19359;51.402;6.778;2023-03-20T01:12:37;6.82;;;5.88;;
7783;SDS011;19359;51.402;6.778;2023-03-20T01:15:06;7.50;;;5.70;;
7783;SDS011;19359;51.402;6.778;2023-03-20T01:17:42;7.07;;;5.82;;
7783;SDS011;19359;51.402;6.778;2023-03-20T01:20:13;9.75;;;6.40;;
7783;SDS011;19359;51.402;6.778;2023-03-20T01:22:41;8.60;;;6.38;;
7783;SDS011;19359;51.402;6.778;2023-03-20T01:25:10;9.40;;;6.40;;
7783;SDS011;19359;51.402;6.778;2023-03-20T01:27:36;8.90;;;5.55;;
7783;SDS011;19359;51.402;6.778;2023-03-20T01:30:08;9.05;;;5.50;;
7783;SDS011;19359;51.402;6.778;2023-03-20T01:32:45;6.35;;;5.70;;
7783;SDS011;19359;51.402;6.778;2023-03-20T01:35:13;9.77;;;6.28;;
7783;SDS011;19359;51.402;6.778;2023-03-20T01:37:41;7.53;;;5.50;;
7783;SDS011;19359;51.402;6.778;2023-03-20T01:40:12;10.00;;;6.38;;
7783;SDS011;19359;51.402;6.778;2023-03-20T01:42:47;8.52;;;5.93;;
7783;SDS011;19359;51.402;6.778;2023-03-20T01:45:14;10.68;;;6.13;;
7783;SDS011;19359;51.402;6.778;2023-03-20T01:47:44;6.97;;;5.57;;
7783;SDS011;19359;51.402;6.778;2023-03-20T01:50:22;8.00;;;5.65;;
7783;SDS011;19359;51.402;6.778;2023-03-20T01:52:52;9.93;;;5.00;;
7783;SDS011;19359;51.402;6.778;2023-03-20T01:55:24;11.48;;;6.38;;
7783;SDS011;19359;51.402;6.778;2023-03-20T01:57:51;11.32;;;6.18;;
7783;SDS011;19359;51.402;6.778;2023-03-20T02:00:21;10.13;;;6.45;;
7783;SDS011;19359;51.402;6.778;2023-03-20T02:02:48;9.07;;;6.25;;
7783;SDS011;19359;51.402;6.778;2023-03-20T02:05:16;8.40;;;5.63;;
7783;SDS011;19359;51.402;6.778;2023-03-20T02:07:48;8.32;;;5.85;;
7783;SDS011;19359;51.402;6.778;2023-03-20T02:10:21;8.27;;;6.63;;
7783;SDS011;19359;51.402;6.778;2023-03-20T02:12:49;8.82;;;6.15;;
7783;SDS011;19359;51.402;6.778;2023-03-20T02:15:17;7.22;;;5.38;;
7783;SDS011;19359;51.402;6.778;2023-03-20T02:17:44;7.40;;;6.10;;
7783;SDS011;19359;51.402;6.778;2023-03-20T02:20:13;9.45;;;5.93;;
7783;SDS011;19359;51.402;6.778;2023-03-20T02:29:10;9.00;;;5.95;;
7783;SDS011;19359;51.402;6.778;2023-03-20T02:35:23;5.78;;;5.07;;
7783;SDS011;19359;51.402;6.778;2023-03-20T02:38:15;8.13;;;5.72;;
7783;SDS011;19359;51.402;6.778;2023-03-20T02:41:00;11.18;;;6.15;;
7783;SDS011;19359;51.402;6.778;2023-03-20T02:43:35;7.70;;;5.15;;
7783;SDS011;19359;51.402;6.778;2023-03-20T02:46:10;8.90;;;6.20;;
7783;SDS011;19359;51.402;6.778;2023-03-20T02:48:44;8.88;;;5.68;;
7783;SDS011;19359;51.402;6.778;2023-03-20T02:51:17;8.05;;;4.25;;
7783;SDS011;19359;51.402;6.778;2023-03-20T02:53:51;6.63;;;5.20;;
7783;SDS011;19359;51.402;6.778;2023-03-20T02:56:23;8.18;;;5.20;;
7783;SDS011;19359;51.402;6.778;2023-03-20T02:58:57;7.63;;;5.03;;
7783;SDS011;19359;51.402;6.778;2023-03-20T03:01:34;10.00;;;5.80;;
7783;SDS011;19359;51.402;6.778;2023-03-20T03:04:05;6.78;;;3.97;;
7783;SDS011;19359;51.402;6.778;2023-03-20T03:06:37;7.45;;;5.18;;
7783;SDS011;19359;51.402;6.778;2023-03-20T03:09:09;7.22;;;5.55;;
7783;SDS011;19359;51.402;6.778;2023-03-20T03:11:40;9.05;;;5.95;;
7783;SDS011;19359;51.402;6.778;2023-03-20T03:14:10;10.88;;;6.72;;
7783;SDS011;19359;51.402;6.778;2023-03-20T03:16:43;13.68;;;7.50;;
7783;SDS011;19359;51.402;6.778;2023-03-20T03:19:12;10.02;;;7.00;;
7783;SDS011;19359;51.402;6.778;2023-03-20T03:21:43;11.02;;;6.57;;
7783;SDS011;19359;51.402;6.778;2023-03-20T03:24:20;11.95;;;7.38;;
7783;SDS011;19359;51.402;6.778;2023-03-20T03:26:53;10.73;;;6.28;;
7783;SDS011;19359;51.402;6.778;2023-03-20T03:29:21;11.55;;;7.10;;
7783;SDS011;19359;51.402;6.778;2023-03-20T03:31:50;10.02;;;7.45;;
7783;SDS011;19359;51.402;6.778;2023-03-20T03:34:18;9.77;;;6.35;;
7783;SDS011;19359;51.402;6.778;2023-03-20T03:36:49;11.38;;;7.80;;
7783;SDS011;19359;51.402;6.778;2023-03-20T03:39:26;12.68;;;8.75;;
7783;SDS011;19359;51.402;6.778;2023-03-20T03:42:04;17.08;;;9.02;;
7783;SDS011;19359;51.402;6.778;2023-03-20T03:44:35;15.93;;;9.80;;
7783;SDS011;19359;51.402;6.778;2023-03-20T03:47:07;16.33;;;9.60;;
7783;SDS011;19359;51.402;6.778;2023-03-20T03:49:39;13.07;;;8.48;;
7783;SDS011;19359;51.402;6.778;2023-03-20T03:52:09;14.70;;;9.50;;
7783;SDS011;19359;51.402;6.778;2023-03-20T03:54:43;15.57;;;9.38;;
7783;SDS011;19359;51.402;6.778;2023-03-20T03:57:13;13.25;;;8.95;;
7783;SDS011;19359;51.402;6.778;2023-03-20T03:59:45;15.38;;;8.40;;
7783;SDS011;19359;51.402;6.778;2023-03-20T04:02:15;13.77;;;8.32;;
7783;SDS011;19359;51.402;6.778;2023-03-20T04:04:44;15.60;;;8.77;;
7783;SDS011;19359;51.402;6.778;2023-03-20T04:07:14;16.15;;;8.63;;
7783;SDS011;19359;51.402;6.778;2023-03-20T04:09:42;15.18;;;8.63;;
7783;SDS011;19359;51.402;6.778;2023-03-20T04:12:17;14.50;;;;;
7783;SDS011;19359;51.402;6.778;2023-03-20T04:15:00;12.35;;;8.15;;
7783;SDS011;19359;51.402;6.778;2023-03-20T04:17:27;14.38;;;8.93;;
7783;SDS011;19359;51.402;6.778;2023-03-20T04:19:54;14.02;;;9.02;;
7783;SDS011;19359;51.402;6.778;2023-03-20T04:22:21;16.45;;;9.20;;
7783;SDS011;19359;51.402;6.778;2023-03-20T04:24:50;19.02;;;9.95;;
7783;SDS011;19359;51.402;6.778;2023-03-20T04:27:17;16.38;;;9.57;;
7783;SDS011;19359;51.402;6.778;2023-03-20T04:29:44;20.35;;;10.57;;
7783;SDS011;19359;51.402;6.778;2023-03-20T04:32:11;22.30;;;10.65;;
7783;SDS011;19359;51.402;6.778;2023-03-20T04:34:38;19.13;;;11.48;;
7783;SDS011;19359;51.402;6.778;2023-03-20T04:37:05;19.92;;;11.80;;
7783;SDS011;19359;51.402;6.778;2023-03-20T04:39:32;23.02;;;10.90;;
7783;SDS011;19359;51.402;6.778;2023-03-20T04:42:02;22.08;;;12.32;;
7783;SDS011;19359;51.402;6.778;2023-03-20T04:44:29;19.92;;;10.82;;
7783;SDS011;19359;51.402;6.778;2023-03-20T04:46:56;27.52;;;12.00;;
7783;SDS011;19359;51.402;6.778;2023-03-20T04:49:24;19.23;;;11.70;;
7783;SDS011;19359;51.402;6.778;2023-03-20T04:51:52;20.95;;;11.45;;
7783;SDS011;19359;51.402;6.778;2023-03-20T04:54:19;19.98;;;11.45;;
7783;SDS011;19359;51.402;6.778;2023-03-20T04:56:47;19.27;;;11.50;;
7783;SDS011;19359;51.402;6.778;2023-03-20T04:59:15;19.40;;;10.82;;
7783;SDS011;19359;51.402;6.778;2023-03-20T05:01:42;20.58;;;11.60;;
7783;SDS011;19359;51.402;6.778;2023-03-20T05:04:09;19.98;;;10.50;;
7783;SDS011;19359;51.402;6.778;2023-03-20T05:06:36;17.05;;;9.95;;
7783;SDS011;19359;51.402;6.778;2023-03-20T05:09:03;16.85;;;8.60;;
7783;SDS011;19359;51.402;6.778;2023-03-20T05:11:30;16.05;;;9.32;;
7783;SDS011;19359;51.402;6.778;2023-03-20T05:13:57;19.70;;;9.10;;
7783;SDS011;19359;51.402;6.778;2023-03-20T05:16:25;18.45;;;9.85;;
7783;SDS011;19359;51.402;6.778;2023-03-20T05:18:52;15.32;;;9.00;;
7783;SDS011;19359;51.402;6.778;2023-03-20T05:21:19;15.98;;;9.95;;
7783;SDS011;19359;51.402;6.778;2023-03-20T05:23:45;16.33;;;9.43;;
7783;SDS011;19359;51.402;6.778;2023-03-20T05:26:12;15.27;;;9.75;;
7783;SDS011;19359;51.402;6.778;2023-03-20T05:28:39;17.10;;;9.32;;
7783;SDS011;19359;51.402;6.778;2023-03-20T05:31:06;16.77;;;9.88;;
7783;SDS011;19359;51.402;6.778;2023-03-20T05:33:35;21.45;;;9.63;;
7783;SDS011;19359;51.402;6.778;2023-03-20T05:36:01;15.80;;;8.98;;
7783;SDS011;19359;51.402;6.778;2023-03-20T05:38:28;12.60;;;8.35;;
7783;SDS011;19359;51.402;6.778;2023-03-20T05:40:55;16.98;;;8.10;;
7783;SDS011;19359;51.402;6.778;2023-03-20T05:43:23;13.95;;;7.75;;
7783;SDS011;19359;51.402;6.778;2023-03-20T05:45:50;13.48;;;8.15;;
7783;SDS011;19359;51.402;6.778;2023-03-20T05:48:17;12.43;;;8.32;;
7783;SDS011;19359;51.402;6.778;2023-03-20T05:50:45;14.23;;;8.20;;
7783;SDS011;19359;51.402;6.778;2023-03-20T05:53:12;13.77;;;8.07;;
7783;SDS011;19359;51.402;6.778;2023-03-20T05:55:39;15.05;;;7.43;;
7783;SDS011;19359;51.402;6.778;2023-03-20T05:58:08;11.50;;;8.00;;
7783;SDS011;19359;51.402;6.778;2023-03-20T06:00:36;16.90;;;8.05;;
7783;SDS011;19359;51.402;6.778;2023-03-20T06:03:02;11.85;;;7.15;;
7783;SDS011;19359;51.402;6.778;2023-03-20T06:05:30;12.98;;;7.50;;
7783;SDS011;19359;51.402;6.778;2023-03-20T06:07:59;12.90;;;7.00;;
7783;SDS011;19359;51.402;6.778;2023-03-20T06:10:26;12.02;;;7.00;;
7783;SDS011;19359;51.402;6.778;2023-03-20T06:12:54;8.10;;;6.07;;
7783;SDS011;19359;51.402;6.778;2023-03-20T06:15:21;14.90;;;7.03;;
7783;SDS011;19359;51.402;6.778;2023-03-20T06:17:48;17.52;;;6.97;;
7783;SDS011;19359;51.402;6.778;2023-03-20T06:20:15;10.07;;;6.90;;
7783;SDS011;19359;51.402;6.778;2023-03-20T06:22:42;12.57;;;6.10;;
7783;SDS011;19359;51.402;6.778;2023-03-20T06:25:11;10.48;;;6.53;;
7783;SDS011;19359;51.402;6.778;2023-03-20T06:27:38;9.35;;;5.65;;
7783;SDS011;19359;51.402;6.778;2023-03-20T06:30:05;13.80;;;6.82;;
7783;SDS011;19359;51.402;6.778;2023-03-20T06:32:33;15.60;;;7.75;;
7783;SDS011;19359;51.402;6.778;2023-03-20T06:35:00;9.50;;;6.25;;
7783;SDS011;19359;51.402;6.778;2023-03-20T06:37:27;9.35;;;5.72;;
7783;SDS011;19359;51.402;6.778;2023-03-20T06:39:53;11.55;;;6.53;;
7783;SDS011;19359;51.402;6.778;2023-03-20T06:42:21;9.38;;;6.57;;
7783;SDS011;19359;51.402;6.778;2023-03-20T06:44:48;16.05;;;6.68;;
7783;SDS011;19359;51.402;6.778;2023-03-20T06:47:15;12.07;;;6.93;;
7783;SDS011;19359;51.402;6.778;2023-03-20T06:49:42;12.93;;;6.55;;
7783;SDS011;19359;51.402;6.778;2023-03-20T06:52:09;8.60;;;5.85;;
7783;SDS011;19359;51.402;6.778;2023-03-20T06:54:41;10.38;;;6.57;;
7783;SDS011;19359;51.402;6.778;2023-03-20T06:57:08;10.30;;;6.80;;
7783;SDS011;19359;51.402;6.778;2023-03-20T06:59:36;12.40;;;5.68;;
7783;SDS011;19359;51.402;6.778;2023-03-20T07:02:03;15.77;;;7.47;;
7783;SDS011;19359;51.402;6.778;2023-03-20T07:04:31;13.35;;;7.32;;
7783;SDS011;19359;51.402;6.778;2023-03-20T07:06:57;10.13;;;7.13;;
7783;SDS011;19359;51.402;6.778;2023-03-20T07:09:24;15.63;;;7.82;;
7783;SDS011;19359;51.402;6.778;2023-03-20T07:11:51;12.80;;;7.10;;
7783;SDS011;19359;51.402;6.778;2023-03-20T07:14:18;15.95;;;6.43;;
7783;SDS011;19359;51.402;6.778;2023-03-20T07:16:47;13.55;;;7.07;;
7783;SDS011;19359;51.402;6.778;2023-03-20T07:19:14;13.20;;;7.97;;
7783;SDS011;19359;51.402;6.778;2023-03-20T07:21:41;16.95;;;8.68;;
7783;SDS011;19359;51.402;6.778;2023-03-20T07:24:08;17.55;;;8.20;;
7783;SDS011;19359;51.402;6.778;2023-03-20T07:26:35;16.30;;;9.38;;
7783;SDS011;19359;51.402;6.778;2023-03-20T07:29:02;17.60;;;8.52;;
7783;SDS011;19359;51.402;6.778;2023-03-20T07:31:28;18.63;;;9.10;;
7783;SDS011;19359;51.402;6.778;2023-03-20T07:33:57;14.02;;;8.25;;
7783;SDS011;19359;51.402;6.778;2023-03-20T07:36:24;17.42;;;8.82;;
7783;SDS011;19359;51.402;6.778;2023-03-20T07:38:51;13.73;;;8.05;;
7783;SDS011;19359;51.402;6.778;2023-03-20T07:41:18;17.52;;;7.57;;
7783;SDS011;19359;51.402;6.778;2023-03-20T07:43:45;14.05;;;7.28;;
7783;SDS011;19359;51.402;6.778;2023-03-20T07:46:12;15.73;;;7.60;;
7783;SDS011;19359;51.402;6.778;2023-03-20T07:48:38;23.83;;;8.70;;
7783;SDS011;19359;51.402;6.778;2023-03-20T07:51:07;16.92;;;7.10;;
7783;SDS011;19359;51.402;6.778;2023-03-20T07:53:34;16.08;;;7.95;;
7783;SDS011;19359;51.402;6.778;2023-03-20T07:56:01;16.05;;;7.75;;
7783;SDS011;19359;51.402;6.778;2023-03-20T07:58:27;16.92;;;7.40;;
7783;SDS011;19359;51.402;6.778;2023-03-20T08:00:55;14.38;;;8.48;;
7783;SDS011;19359;51.402;6.778;2023-03-20T08:03:22;17.02;;;7.28;;
7783;SDS011;19359;51.402;6.778;2023-03-20T08:05:50;14.52;;;7.55;;
7783;SDS011;19359;51.402;6.778;2023-03-20T08:08:18;11.90;;;7.50;;
7783;SDS011;19359;51.402;6.778;2023-03-20T08:10:45;13.82;;;6.10;;
7783;SDS011;19359;51.402;6.778;2023-03-20T08:13:12;13.77;;;6.60;;
7783;SDS011;19359;51.402;6.778;2023-03-20T08:15:39;12.27;;;5.82;;
7783;SDS011;19359;51.402;6.778;2023-03-20T08:18:06;19.23;;;7.07;;
7783;SDS011;19359;51.402;6.778;2023-03-20T08:20:32;9.95;;;5.82;;
7783;SDS011;19359;51.402;6.778;2023-03-20T08:22:59;9.57;;;5.18;;
7783;SDS011;19359;51.402;6.778;2023-03-20T08:25:28;12.80;;;6.05;;
7783;SDS011;19359;51.402;6.778;2023-03-20T08:27:57;5.00;;;3.92;;
7783;SDS011;19359;51.402;6.778;2023-03-20T08:30:24;11.35;;;4.40;;
7783;SDS011;19359;51.402;6.778;2023-03-20T08:32:51;10.90;;;5.10;;
7783;SDS011;19359;51.402;6.778;2023-03-20T08:35:18;8.10;;;5.25;;
7783;SDS011;19359;51.402;6.778;2023-03-20T08:37:45;6.60;;;2.83;;
7783;SDS011;19359;51.402;6.778;2023-03-20T08:40:12;10.30;;;4.35;;
7783;SDS011;19359;51.402;6.778;2023-03-20T08:42:40;4.25;;;3.35;;
7783;SDS011;19359;51.402;6.778;2023-03-20T08:45:07;8.88;;;4.68;;
7783;SDS011;19359;51.402;6.778;2023-03-20T08:47:35;8.68;;;4.22;;
7783;SDS011;19359;51.402;6.778;2023-03-20T08:50:01;10.07;;;4.45;;
7783;SDS011;19359;51.402;6.778;2023-03-20T08:52:29;8.35;;;4.93;;
7783;SDS011;19359;51.402;6.778;2023-03-20T08:54:56;5.47;;;2.47;;
7783;SDS011;19359;51.402;6.778;2023-03-20T08:57:22;9.25;;;3.22;;
7783;SDS011;19359;51.402;6.778;2023-03-20T08:59:51;4.28;;;2.25;;
7783;SDS011;19359;51.402;6.778;2023-03-20T09:02:18;7.32;;;3.35;;
7783;SDS011;19359;51.402;6.778;2023-03-20T09:04:45;9.07;;;2.80;;
7783;SDS011;19359;51.402;6.778;2023-03-20T09:07:12;6.15;;;3.72;;
7783;SDS011;19359;51.402;6.778;2023-03-20T09:09:40;4.95;;;2.45;;
7783;SDS011;19359;51.402;6.778;2023-03-20T09:12:06;7.13;;;1.67;;
7783;SDS011;19359;51.402;6.778;2023-03-20T09:14:33;4.75;;;1.88;;
7783;SDS011;19359;51.402;6.778;2023-03-20T09:17:03;6.55;;;2.25;;
7783;SDS011;19359;51.402;6.778;2023-03-20T09:19:30;4.93;;;2.22;;
7783;SDS011;19359;51.402;6.778;2023-03-20T09:21:57;7.88;;;1.90;;
7783;SDS011;19359;51.402;6.778;2023-03-20T09:24:25;5.43;;;2.47;;
7783;SDS011;19359;51.402;6.778;2023-03-20T09:26:53;6.45;;;2.38;;
7783;SDS011;19359;51.402;6.778;2023-03-20T09:29:20;0.93;;;0.93;;
7783;SDS011;19359;51.402;6.778;2023-03-20T09:31:47;4.15;;;1.50;;
7783;SDS011;19359;51.402;6.778;2023-03-20T09:34:15;1.75;;;1.30;;
7783;SDS011;19359;51.402;6.778;2023-03-20T09:36:42;4.22;;;1.60;;
7783;SDS011;19359;51.402;6.778;2023-03-20T09:39:09;7.85;;;2.13;;
7783;SDS011;19359;51.402;6.778;2023-03-20T09:41:36;2.78;;;1.83;;
7783;SDS011;19359;51.402;6.778;2023-03-20T09:44:08;6.70;;;1.80;;
7783;SDS011;19359;51.402;6.778;2023-03-20T09:46:54;5.43;;;1.20;;
7783;SDS011;19359;51.402;6.778;2023-03-20T09:49:36;4.18;;;1.73;;
7783;SDS011;19359;51.402;6.778;2023-03-20T09:52:13;5.07;;;1.05;;
7783;SDS011;19359;51.402;6.778;2023-03-20T09:54:46;4.80;;;0.95;;
7783;SDS011;19359;51.402;6.778;2023-03-20T09:57:16;4.35;;;1.58;;
7783;SDS011;19359;51.402;6.778;2023-03-20T09:59:47;4.13;;;1.50;;
7783;SDS011;19359;51.402;6.778;2023-03-20T10:02:16;9.13;;;1.63;;
7783;SDS011;19359;51.402;6.778;2023-03-20T10:04:49;3.88;;;1.15;;
7783;SDS011;19359;51.402;6.778;2023-03-20T10:07:18;6.95;;;1.60;;
7783;SDS011;19359;51.402;6.778;2023-03-20T10:09:45;1.75;;;1.25;;
7783;SDS011;19359;51.402;6.778;2023-03-20T10:12:21;2.80;;;0.98;;
7783;SDS011;19359;51.402;6.778;2023-03-20T10:14:57;4.47;;;1.90;;
7783;SDS011;19359;51.402;6.778;2023-03-20T10:17:38;4.90;;;1.38;;
7783;SDS011;19359;51.402;6.778;2023-03-20T10:20:16;4.15;;;1.50;;
7783;SDS011;19359;51.402;6.778;2023-03-20T10:22:51;4.55;;;1.92;;
7783;SDS011;19359;51.402;6.778;2023-03-20T10:25:22;5.20;;;1.75;;
7783;SDS011;19359;51.402;6.778;2023-03-20T10:27:55;4.90;;;1.52;;
7783;SDS011;19359;51.402;6.778;2023-03-20T10:33:21;3.63;;;1.77;;
7783;SDS011;19359;51.402;6.778;2023-03-20T10:36:01;4.57;;;1.17;;
7783;SDS011;19359;51.402;6.778;2023-03-20T10:38:41;4.45;;;1.80;;
7783;SDS011;19359;51.402;6.778;2023-03-20T10:41:15;4.88;;;2.20;;
7783;SDS011;19359;51.402;6.778;2023-03-20T10:43:46;2.97;;;1.45;;
7783;SDS011;19359;51.402;6.778;2023-03-20T10:46:16;2.42;;;1.40;;
7783;SDS011;19359;51.402;6.778;2023-03-20T10:48:48;5.50;;;1.40;;
7783;SDS011;19359;51.402;6.778;2023-03-20T10:51:19;6.97;;;1.05;;
7783;SDS011;19359;51.402;6.778;2023-03-20T10:53:48;2.42;;;1.05;;
7783;SDS011;19359;51.402;6.778;2023-03-20T10:56:19;11.18;;;1.58;;
7783;SDS011;19359;51.402;6.778;2023-03-20T10:58:54;1.95;;;0.80;;
7783;SDS011;19359;51.402;6.778;2023-03-20T11:01:24;1.85;;;0.90;;
7783;SDS011;19359;51.402;6.778;2023-03-20T11:03:50;7.75;;;1.10;;
7783;SDS011;19359;51.402;6.778;2023-03-20T11:06:19;5.50;;;0.80;;
7783;SDS011;19359;51.402;6.778;2023-03-20T11:08:49;3.47;;;1.00;;
7783;SDS011;19359;51.402;6.778;2023-03-20T11:11:20;9.98;;;1.40;;
7783;SDS011;19359;51.402;6.778;2023-03-20T11:13:49;2.90;;;1.05;;
7783;SDS011;19359;51.402;6.778;2023-03-20T11:16:17;1.33;;;1.23;;
7783;SDS011;19359;51.402;6.778;2023-03-20T11:18:46;3.03;;;1.10;;
7783;SDS011;19359;51.402;6.778;2023-03-20T11:21:16;1.88;;;1.15;;
7783;SDS011;19359;51.402;6.778;2023-03-20T11:23:46;4.72;;;1.35;;
7783;SDS011;19359;51.402;6.778;2023-03-20T11:26:14;1.88;;;0.75;;
7783;SDS011;19359;51.402;6.778;2023-03-20T11:28:47;3.38;;;1.55;;
7783;SDS011;19359;51.402;6.778;2023-03-20T11:31:18;2.40;;;1.02;;
7783;SDS011;19359;51.402;6.778;2023-03-20T11:33:50;1.38;;;1.15;;
7783;SDS011;19359;51.402;6.778;2023-03-20T11:36:21;3.28;;;1.42;;
7783;SDS011;19359;51.402;6.778;2023-03-20T11:38:50;1.90;;;1.33;;
7783;SDS011;19359;51.402;6.778;2023-03-20T11:41:20;7.03;;;1.85;;
7783;SDS011;19359;51.402;6.778;2023-03-20T11:43:49;5.75;;;1.33;;
7783;SDS011;19359;51.402;6.778;2023-03-20T11:46:17;2.78;;;1.17;;
7783;SDS011;19359;51.402;6.778;2023-03-20T11:48:47;4.38;;;1.35;;
7783;SDS011;19359;51.402;6.778;2023-03-20T11:51:30;2.58;;;1.35;;
7783;SDS011;19359;51.402;6.778;2023-03-20T11:53:59;3.45;;;1.23;;
7783;SDS011;19359;51.402;6.778;2023-03-20T11:56:28;6.95;;;1.75;;
7783;SDS011;19359;51.402;6.778;2023-03-20T11:58:57;4.93;;;1.45;;
7783;SDS011;19359;51.402;6.778;2023-03-20T12:01:26;2.70;;;1.40;;
7783;SDS011;19359;51.402;6.778;2023-03-20T12:04:02;3.25;;;1.60;;
7783;SDS011;19359;51.402;6.778;2023-03-20T12:06:38;4.78;;;1.27;;
7783;SDS011;19359;51.402;6.778;2023-03-20T12:09:14;4.32;;;1.10;;
7783;SDS011;19359;51.402;6.778;2023-03-20T12:11:51;4.30;;;1.63;;
7783;SDS011;19359;51.402;6.778;2023-03-20T12:14:22;7.35;;;1.77;;
7783;SDS011;19359;51.402;6.778;2023-03-20T12:16:55;1.75;;;1.20;;
7783;SDS011;19359;51.402;6.778;2023-03-20T12:19:31;3.58;;;1.75;;
7783;SDS011;19359;51.402;6.778;2023-03-20T12:22:02;6.53;;;1.25;;
7783;SDS011;19359;51.402;6.778;2023-03-20T12:24:40;5.68;;;1.70;;
7783;SDS011;19359;51.402;6.778;2023-03-20T12:27:16;2.80;;;1.48;;
7783;SDS011;19359;51.402;6.778;2023-03-20T12:29:49;2.67;;;1.42;;
7783;SDS011;19359;51.402;6.778;2023-03-20T12:32:22;4.68;;;2.10;;
7783;SDS011;19359;51.402;6.778;2023-03-20T12:34:52;8.43;;;2.05;;
7783;SDS011;19359;51.402;6.778;2023-03-20T12:37:23;3.80;;;1.83;;
7783;SDS011;19359;51.402;6.778;2023-03-20T12:39:51;7.07;;;1.40;;
7783;SDS011;19359;51.402;6.778;2023-03-20T12:42:24;2.33;;;1.38;;
7783;SDS011;19359;51.402;6.778;2023-03-20T12:45:03;1.98;;;1.10;;
7783;SDS011;19359;51.402;6.778;2023-03-20T12:47:39;2.03;;;1.42;;
7783;SDS011;19359;51.402;6.778;2023-03-20T12:50:21;9.10;;;1.48;;
7783;SDS011;19359;51.402;6.778;2023-03-20T12:52:56;4.53;;;2.15;;
7783;SDS011;19359;51.402;6.778;2023-03-20T12:55:47;4.15;;;1.17;;
7783;SDS011;19359;51.402;6.778;2023-03-20T12:58:25;4.72;;;1.77;;
7783;SDS011;19359;51.402;6.778;2023-03-20T13:00:59;6.28;;;1.33;;
7783;SDS011;19359;51.402;6.778;2023-03-20T13:06:22;3.08;;;1.40;;
7783;SDS011;19359;51.402;6.778;2023-03-20T13:09:02;4.95;;;1.40;;
7783;SDS011;19359;51.402;6.778;2023-03-20T13:11:53;10.48;;;1.85;;
7783;SDS011;19359;51.402;6.778;2023-03-20T13:14:26;4.03;;;1.23;;
7783;SDS011;19359;51.402;6.778;2023-03-20T13:17:01;4.57;;;1.35;;
7783;SDS011;19359;51.402;6.778;2023-03-20T13:19:40;2.42;;;1.48;;
7783;SDS011;19359;51.402;6.778;2023-03-20T13:22:16;4.95;;;1.48;;
7783;SDS011;19359;51.402;6.778;2023-03-20T13:24:53;5.57;;;1.70;;
7783;SDS011;19359;51.402;6.778;2023-03-20T13:27:26;7.18;;;2.13;;
7783;SDS011;19359;51.402;6.778;2023-03-20T13:30:04;3.83;;;1.92;;
7783;SDS011;19359;51.402;6.778;2023-03-20T13:32:45;1.48;;;1.40;;
7783;SDS011;19359;51.402;6.778;2023-03-20T13:35:27;6.60;;;1.85;;
7783;SDS011;19359;51.402;6.778;2023-03-20T13:38:01;8.98;;;1.50;;
7783;SDS011;19359;51.402;6.778;2023-03-20T13:40:38;3.72;;;2.95;;
7783;SDS011;19359;51.402;6.778;2023-03-20T13:43:12;2.25;;;2.03;;
7783;SDS011;19359;51.402;6.778;2023-03-20T13:45:49;2.70;;;1.73;;
7783;SDS011;19359;51.402;6.778;2023-03-20T13:48:23;2.17;;;1.60;;
7783;SDS011;19359;51.402;6.778;2023-03-20T13:50:56;4.03;;;1.63;;
7783;SDS011;19359;51.402;6.778;2023-03-20T13:53:32;2.75;;;1.52;;
7783;SDS011;19359;51.402;6.778;2023-03-20T13:56:06;3.70;;;1.73;;
7783;SDS011;19359;51.402;6.778;2023-03-20T13:58:45;4.72;;;1.70;;
7783;SDS011;19359;51.402;6.778;2023-03-20T14:01:27;4.63;;;1.63;;
7783;SDS011;19359;51.402;6.778;2023-03-20T14:03:59;3.08;;;1.42;;
7783;SDS011;19359;51.402;6.778;2023-03-20T14:09:31;5.82;;;2.17;;
7783;SDS011;19359;51.402;6.778;2023-03-20T14:12:01;7.45;;;2.42;;
7783;SDS011;19359;51.402;6.778;2023-03-20T14:14:31;4.13;;;1.75;;
7783;SDS011;19359;51.402;6.778;2023-03-20T14:17:12;2.97;;;1.75;;
7783;SDS011;19359;51.402;6.778;2023-03-20T14:19:41;1.88;;;0.90;;
7783;SDS011;19359;51.402;6.778;2023-03-20T14:22:13;4.22;;;1.67;;
7783;SDS011;19359;51.402;6.778;2023-03-20T14:24:41;1.23;;;1.20;;
7783;SDS011;19359;51.402;6.778;2023-03-20T14:27:17;3.63;;;1.25;;
7783;SDS011;19359;51.402;6.778;2023-03-20T14:29:45;3.53;;;1.33;;
7783;SDS011;19359;51.402;6.778;2023-03-20T14:35:23;5.82;;;1.55;;
7783;SDS011;19359;51.402;6.778;2023-03-20T14:40:51;4.18;;;1.38;;
7783;SDS011;19359;51.402;6.778;2023-03-20T14:43:35;10.55;;;1.90;;
7783;SDS011;19359;51.402;6.778;2023-03-20T14:46:14;9.52;;;2.25;;
7783;SDS011;19359;51.402;6.778;2023-03-20T14:48:49;9.18;;;2.47;;
7783;SDS011;19359;51.402;6.778;2023-03-20T14:51:19;5.28;;;1.95;;
7783;SDS011;19359;51.402;6.778;2023-03-20T14:53:57;2.40;;;1.40;;
7783;SDS011;19359;51.402;6.778;2023-03-20T14:56:51;6.05;;;2.53;;
7783;SDS011;19359;51.402;6.778;2023-03-20T14:59:19;4.07;;;1.95;;
7783;SDS011;19359;51.402;6.778;2023-03-20T15:01:47;3.90;;;1.77;;
7783;SDS011;19359;51.402;6.778;2023-03-20T15:04:31;6.30;;;2.08;;
7783;SDS011;19359;51.402;6.778;2023-03-20T15:07:02;4.82;;;2.15;;
7783;SDS011;19359;51.402;6.778;2023-03-20T15:09:33;5.88;;;1.95;;
7783;SDS011;19359;51.402;6.778;2023-03-20T15:12:07;6.15;;;2.22;;
7783;SDS011;19359;51.402;6.778;2023-03-20T15:14:38;3.72;;;2.15;;
7783;SDS011;19359;51.402;6.778;2023-03-20T15:17:15;5.93;;;2.58;;
7783;SDS011;19359;51.402;6.778;2023-03-20T15:19:44;3.60;;;2.53;;
7783;SDS011;19359;51.402;6.778;2023-03-20T15:22:13;4.80;;;2.03;;
7783;SDS011;19359;51.402;6.778;2023-03-20T15:24:51;6.35;;;2.38;;
7783;SDS011;19359;51.402;6.778;2023-03-20T15:27:19;7.82;;;2.45;;
7783;SDS011;19359;51.402;6.778;2023-03-20T15:29:48;5.40;;;2.97;;
7783;SDS011;19359;51.402;6.778;2023-03-20T15:32:17;7.15;;;2.10;;
7783;SDS011;19359;51.402;6.778;2023-03-20T15:34:45;4.15;;;2.00;;
7783;SDS011;19359;51.402;6.778;2023-03-20T15:37:13;11.50;;;2.50;;
7783;SDS011;19359;51.402;6.778;2023-03-20T15:39:43;5.13;;;2.03;;